createdAt,value
2018-02-27T00:01:32.452Z,70.60
2018-02-27T00:04:03.076Z,68.70
2018-02-27T00:06:32.268Z,68.80
2018-02-27T00:09:02.240Z,68.60
2018-02-27T00:11:31.451Z,68.90
2018-02-27T00:14:00.968Z,66.90
2018-02-27T00:16:30.235Z,67.10
2018-02-27T00:19:00.234Z,68.30
2018-02-27T00:21:30.011Z,68.40
2018-02-27T00:23:59.027Z,68.40
2018-02-27T00:26:28.691Z,68.90
2018-02-27T00:28:57.741Z,70.00
2018-02-27T00:31:27.912Z,73.90
2018-02-27T00:33:57.664Z,73.90
2018-02-27T00:36:27.558Z,76.30
2018-02-27T00:38:57.017Z,76.40
2018-02-27T00:41:25.891Z,75.40
2018-02-27T00:43:55.467Z,72.40
2018-02-27T00:46:25.590Z,67.40
2018-02-27T00:48:55.878Z,68.50
2018-02-27T00:51:25.743Z,68.50
2018-02-27T00:53:55.688Z,67.40
2018-02-27T00:56:25.218Z,67.20
2018-02-27T00:58:54.569Z,67.70
2018-02-27T01:01:24.181Z,67.30
2018-02-27T01:03:53.983Z,67.60
2018-02-27T01:06:23.453Z,67.70
2018-02-27T01:08:53.122Z,69.20
2018-02-27T01:11:22.340Z,70.50
2018-02-27T01:13:52.095Z,70.40
2018-02-27T01:16:21.061Z,70.50
2018-02-27T01:18:50.607Z,71.40
2018-02-27T01:21:18.903Z,72.00
2018-02-27T01:23:47.906Z,71.70
2018-02-27T01:26:18.547Z,72.70
2018-02-27T01:28:47.532Z,73.20
2018-02-27T01:31:16.232Z,73.10
2018-02-27T01:33:45.070Z,71.60
2018-02-27T01:36:13.653Z,71.30
2018-02-27T01:38:43.271Z,71.20
2018-02-27T01:41:12.375Z,70.50
2018-02-27T01:43:41.588Z,70.40
2018-02-27T01:46:11.556Z,70.20
2018-02-27T01:48:40.697Z,70.00
2018-02-27T01:51:14.654Z,69.90
2018-02-27T01:53:44.289Z,69.10
2018-02-27T01:56:13.451Z,69.10
2018-02-27T01:58:42.135Z,69.70
2018-02-27T02:01:11.231Z,69.40
2018-02-27T02:03:39.779Z,69.10
2018-02-27T02:06:07.877Z,69.60
2018-02-27T02:08:36.200Z,69.50
2018-02-27T02:11:04.444Z,69.50
2018-02-27T02:13:33.466Z,69.10
2018-02-27T02:16:02.282Z,69.10
2018-02-27T02:18:31.038Z,69.20
2018-02-27T02:20:59.930Z,69.20
2018-02-27T02:23:28.369Z,68.70
2018-02-27T02:25:58.346Z,69.30
2018-02-27T02:28:26.625Z,69.30
2018-02-27T02:30:54.757Z,69.70
2018-02-27T02:33:22.696Z,69.40
2018-02-27T02:35:52.944Z,70.90
2018-02-27T02:38:21.086Z,70.80
2018-02-27T02:40:49.159Z,70.20
2018-02-27T02:43:17.542Z,69.10
2018-02-27T02:45:45.897Z,69.20
2018-02-27T02:48:13.901Z,68.40
2018-02-27T02:50:42.718Z,69.00
2018-02-27T02:53:10.706Z,69.00
2018-02-27T02:55:38.965Z,69.10
2018-02-27T02:58:07.090Z,68.80
2018-02-27T03:00:35.432Z,68.20
2018-02-27T03:03:03.821Z,68.00
2018-02-27T03:05:31.761Z,68.20
2018-02-27T03:08:00.261Z,68.80
2018-02-27T03:10:28.284Z,68.80
2018-02-27T03:12:57.100Z,68.80
2018-02-27T03:15:25.599Z,68.60
2018-02-27T03:17:53.882Z,69.10
2018-02-27T03:20:22.063Z,69.00
2018-02-27T03:22:49.995Z,68.80
2018-02-27T03:25:18.221Z,68.70
2018-02-27T03:27:46.414Z,68.20
2018-02-27T03:30:14.530Z,68.30
2018-02-27T03:32:43.163Z,68.60
2018-02-27T03:35:11.883Z,68.00
2018-02-27T03:37:40.312Z,67.90
2018-02-27T03:40:08.577Z,68.50
2018-02-27T03:42:36.581Z,68.30
2018-02-27T03:45:05.588Z,69.20
2018-02-27T03:47:33.635Z,69.20
2018-02-27T03:50:01.782Z,68.70
2018-02-27T03:52:29.650Z,69.00
2018-02-27T03:54:57.892Z,68.30
2018-02-27T03:57:27.718Z,68.50
2018-02-27T03:59:55.627Z,68.50
2018-02-27T04:02:25.012Z,69.10
2018-02-27T04:04:53.588Z,68.90
2018-02-27T04:07:22.482Z,68.00
2018-02-27T04:09:50.754Z,68.00
2018-02-27T04:12:18.972Z,68.00
2018-02-27T04:14:47.719Z,68.40
2018-02-27T04:17:15.717Z,68.40
2018-02-27T04:19:44.756Z,67.10
2018-02-27T04:22:12.904Z,67.10
2018-02-27T04:24:40.906Z,67.00
2018-02-27T04:27:09.148Z,67.20
2018-02-27T04:29:37.322Z,67.60
2018-02-27T04:32:05.777Z,66.50
2018-02-27T04:34:35.085Z,67.20
2018-02-27T04:37:02.919Z,67.10
2018-02-27T04:39:30.859Z,66.80
2018-02-27T04:41:58.785Z,66.80
2018-02-27T04:44:26.840Z,65.90
2018-02-27T04:46:55.254Z,66.70
2018-02-27T04:49:23.246Z,66.90
2018-02-27T04:51:51.399Z,66.70
2018-02-27T04:54:19.626Z,65.90
2018-02-27T04:56:47.972Z,66.00
2018-02-27T04:59:16.204Z,65.90
2018-02-27T05:01:45.035Z,66.70
2018-02-27T05:04:13.414Z,65.40
2018-02-27T05:06:41.667Z,65.60
2018-02-27T05:09:10.040Z,65.50
2018-02-27T05:11:38.346Z,65.40
2018-02-27T05:14:06.705Z,65.60
2018-02-27T05:16:34.825Z,65.70
2018-02-27T05:19:03.215Z,66.10
2018-02-27T05:21:32.204Z,66.00
2018-02-27T05:24:00.249Z,66.00
2018-02-27T05:26:28.524Z,66.80
2018-02-27T05:28:56.897Z,66.80
2018-02-27T05:31:25.440Z,65.80
2018-02-27T05:33:53.833Z,66.10
2018-02-27T05:36:22.021Z,65.90
2018-02-27T05:38:50.681Z,66.00
2018-02-27T05:41:19.027Z,65.70
2018-02-27T05:43:47.761Z,66.00
2018-02-27T05:46:15.869Z,65.90
2018-02-27T05:48:45.647Z,66.20
2018-02-27T05:51:14.026Z,66.20
2018-02-27T05:53:42.618Z,66.90
2018-02-27T05:56:11.316Z,66.50
2018-02-27T05:58:39.783Z,65.80
2018-02-27T06:01:09.398Z,66.20
2018-02-27T06:03:37.907Z,66.20
2018-02-27T06:06:06.189Z,66.50
2018-02-27T06:08:34.842Z,66.20
2018-02-27T06:11:03.516Z,66.80
2018-02-27T06:13:31.769Z,66.40
2018-02-27T06:16:00.174Z,66.40
2018-02-27T06:18:28.839Z,66.80
2018-02-27T06:20:58.566Z,67.00
2018-02-27T06:23:27.279Z,66.60
2018-02-27T06:25:56.231Z,66.50
2018-02-27T06:28:24.965Z,66.70
2018-02-27T06:30:54.032Z,66.30
2018-02-27T06:33:22.981Z,66.90
2018-02-27T06:35:52.103Z,66.70
2018-02-27T06:38:20.762Z,67.00
2018-02-27T06:40:49.751Z,66.70
2018-02-27T06:43:18.751Z,67.00
2018-02-27T06:45:47.745Z,67.90
2018-02-27T06:48:16.495Z,67.80
2018-02-27T06:50:45.767Z,67.40
2018-02-27T06:53:14.813Z,67.80
2018-02-27T06:55:43.782Z,68.00
2018-02-27T06:58:13.731Z,66.90
2018-02-27T07:00:42.908Z,66.80
2018-02-27T07:03:12.693Z,66.80
2018-02-27T07:05:41.452Z,66.70
2018-02-27T07:08:10.014Z,67.40
2018-02-27T07:10:38.925Z,67.00
2018-02-27T07:13:09.307Z,66.80
2018-02-27T07:15:39.236Z,66.60
2018-02-27T07:18:08.499Z,66.60
2018-02-27T07:20:38.506Z,66.60
2018-02-27T07:23:07.802Z,66.70
2018-02-27T07:25:36.884Z,66.50
2018-02-27T07:28:07.578Z,65.80
2018-02-27T07:30:36.661Z,65.60
2018-02-27T07:33:06.769Z,60.20
2018-02-27T07:35:36.465Z,56.90
2018-02-27T07:38:05.108Z,56.90
2018-02-27T07:40:34.586Z,55.10
2018-02-27T07:43:03.763Z,53.90
2018-02-27T07:45:32.799Z,52.00
2018-02-27T07:48:02.124Z,52.10
2018-02-27T07:50:33.156Z,51.70
2018-02-27T07:53:01.646Z,51.70
2018-02-27T07:55:30.545Z,51.70
2018-02-27T07:57:59.377Z,52.40
2018-02-27T08:00:28.494Z,53.50
2018-02-27T08:02:57.607Z,53.30
2018-02-27T08:05:27.643Z,51.10
2018-02-27T08:07:57.477Z,52.10
2018-02-27T08:10:27.418Z,49.90
2018-02-27T08:12:56.367Z,50.00
2018-02-27T08:15:26.689Z,48.90
2018-02-27T08:17:55.624Z,48.90
2018-02-27T08:20:25.762Z,49.60
2018-02-27T08:22:55.971Z,49.50
2018-02-27T08:25:27.297Z,48.00
2018-02-27T08:27:56.946Z,48.80
2018-02-27T08:30:26.072Z,49.10
2018-02-27T08:32:55.108Z,46.70
2018-02-27T08:35:24.951Z,47.30
2018-02-27T08:37:54.376Z,47.40
2018-02-27T08:40:23.320Z,46.90
2018-02-27T08:42:53.119Z,47.30
2018-02-27T08:45:22.555Z,47.90
2018-02-27T08:47:51.416Z,48.70
2018-02-27T08:50:21.621Z,49.90
2018-02-27T08:52:51.505Z,47.60
2018-02-27T08:55:20.201Z,47.80
2018-02-27T08:57:49.740Z,48.80
2018-02-27T09:00:20.165Z,48.70
2018-02-27T09:02:50.419Z,47.20
2018-02-27T09:05:20.482Z,46.70
2018-02-27T09:07:51.650Z,45.20
2018-02-27T09:10:22.057Z,45.10
2018-02-27T09:12:52.554Z,43.80
2018-02-27T09:15:22.705Z,48.80
2018-02-27T09:17:53.493Z,51.70
2018-02-27T09:20:23.953Z,53.30
2018-02-27T09:22:53.733Z,56.20
2018-02-27T09:25:23.247Z,57.10
2018-02-27T09:27:52.374Z,57.10
2018-02-27T09:30:23.008Z,58.50
2018-02-27T09:32:52.793Z,58.60
2018-02-27T09:35:21.560Z,58.50
2018-02-27T09:37:51.325Z,58.10
2018-02-27T09:40:20.163Z,58.10
2018-02-27T09:42:49.144Z,58.90
2018-02-27T09:45:18.044Z,58.80
2018-02-27T09:47:47.080Z,59.80
2018-02-27T09:50:16.489Z,57.60
2018-02-27T09:52:46.097Z,56.20
2018-02-27T09:55:15.611Z,56.20
2018-02-27T09:57:44.766Z,57.70
2018-02-27T10:00:14.823Z,57.60
2018-02-27T10:02:43.731Z,57.90
2018-02-27T10:05:12.749Z,56.80
2018-02-27T10:07:41.484Z,57.30
2018-02-27T10:10:12.928Z,55.60
2018-02-27T10:12:43.398Z,55.00
2018-02-27T10:15:12.909Z,55.00
2018-02-27T10:17:44.013Z,54.40
2018-02-27T10:20:13.891Z,54.30
2018-02-27T10:22:42.713Z,54.30
2018-02-27T10:25:11.610Z,52.10
2018-02-27T10:27:40.752Z,51.50
2018-02-27T10:30:10.054Z,52.50
2018-02-27T10:32:39.966Z,52.30
2018-02-27T10:35:08.723Z,51.00
2018-02-27T10:37:38.214Z,52.20
2018-02-27T10:40:07.497Z,52.10
2018-02-27T10:42:37.775Z,52.80
2018-02-27T10:45:07.905Z,52.80
2018-02-27T10:47:38.066Z,51.70
2018-02-27T10:50:07.213Z,51.70
2018-02-27T10:52:36.035Z,50.10
2018-02-27T10:55:05.253Z,49.40
2018-02-27T10:57:34.259Z,49.80
2018-02-27T11:00:04.111Z,51.40
2018-02-27T11:02:33.030Z,51.30
2018-02-27T11:05:02.616Z,50.40
2018-02-27T11:07:31.314Z,50.30
2018-02-27T11:10:01.019Z,49.20
2018-02-27T11:12:30.674Z,48.90
2018-02-27T11:14:59.914Z,48.90
2018-02-27T11:17:28.811Z,48.10
2018-02-27T11:19:57.807Z,47.80
2018-02-27T11:22:26.872Z,47.50
2018-02-27T11:24:55.729Z,46.20
2018-02-27T11:27:24.792Z,47.40
2018-02-27T11:29:54.569Z,46.10
2018-02-27T11:32:23.227Z,46.20
2018-02-27T11:34:52.034Z,47.30
2018-02-27T11:37:20.844Z,47.70
2018-02-27T11:39:49.950Z,47.10
2018-02-27T11:42:18.885Z,46.40
2018-02-27T11:44:47.744Z,47.10
2018-02-27T11:47:17.549Z,46.70
2018-02-27T11:49:47.732Z,46.00
2018-02-27T11:52:16.656Z,46.00
2018-02-27T11:54:46.623Z,45.90
2018-02-27T11:57:15.405Z,45.80
2018-02-27T11:59:44.250Z,46.00
2018-02-27T12:02:13.820Z,43.40
2018-02-27T12:04:43.102Z,43.30
2018-02-27T12:07:11.857Z,43.10
2018-02-27T12:09:41.489Z,43.90
2018-02-27T12:12:10.360Z,43.90
2018-02-27T12:14:40.237Z,44.30
2018-02-27T12:17:09.851Z,43.40
2018-02-27T12:19:39.466Z,42.80
2018-02-27T12:22:09.036Z,43.00
2018-02-27T12:24:38.315Z,43.00
2018-02-27T12:27:07.262Z,43.10
2018-02-27T12:29:36.313Z,41.00
2018-02-27T12:32:04.988Z,40.90
2018-02-27T12:34:33.932Z,42.60
2018-02-27T12:37:03.597Z,40.70
2018-02-27T12:39:32.514Z,40.50
2018-02-27T12:42:02.073Z,40.00
2018-02-27T12:44:32.133Z,41.10
2018-02-27T12:47:01.631Z,41.00
2018-02-27T12:49:30.529Z,40.90
2018-02-27T12:51:59.268Z,39.80
2018-02-27T12:54:27.897Z,41.30
2018-02-27T12:56:56.680Z,41.70
2018-02-27T12:59:25.521Z,41.40
2018-02-27T13:01:54.238Z,40.40
2018-02-27T13:04:23.082Z,39.70
2018-02-27T13:06:53.052Z,40.80
2018-02-27T13:09:21.732Z,40.80
2018-02-27T13:11:50.696Z,40.40
2018-02-27T13:14:19.502Z,40.50
2018-02-27T13:16:48.438Z,41.20
2018-02-27T13:19:17.283Z,40.40
2018-02-27T13:21:46.178Z,41.50
2018-02-27T13:24:14.961Z,40.50
2018-02-27T13:26:43.685Z,41.70
2018-02-27T13:29:12.898Z,41.90
2018-02-27T13:31:42.389Z,41.40
2018-02-27T13:34:11.274Z,41.20
2018-02-27T13:36:40.014Z,41.70
2018-02-27T13:39:09.489Z,42.20
2018-02-27T13:41:38.975Z,42.00
2018-02-27T13:44:07.839Z,42.10
2018-02-27T13:46:36.549Z,42.20
2018-02-27T13:49:05.425Z,41.00
2018-02-27T13:51:34.022Z,40.60
2018-02-27T13:54:03.342Z,42.50
2018-02-27T13:56:33.336Z,42.20
2018-02-27T13:59:02.810Z,41.60
2018-02-27T14:01:31.513Z,41.60
2018-02-27T14:04:01.038Z,42.10
2018-02-27T14:06:30.334Z,42.70
2018-02-27T14:09:00.231Z,42.70
2018-02-27T14:11:29.173Z,42.70
2018-02-27T14:13:57.941Z,43.50
2018-02-27T14:16:27.718Z,43.50
2018-02-27T14:18:59.093Z,43.50
2018-02-27T14:21:28.923Z,43.40
2018-02-27T14:23:58.377Z,42.90
2018-02-27T14:26:28.146Z,44.20
2018-02-27T14:28:56.957Z,44.20
2018-02-27T14:31:25.581Z,44.20
2018-02-27T14:33:54.485Z,44.10
2018-02-27T14:36:23.930Z,44.50
2018-02-27T14:38:52.561Z,44.50
2018-02-27T14:41:21.310Z,45.00
2018-02-27T14:43:50.197Z,45.20
2018-02-27T14:46:19.039Z,45.50
2018-02-27T14:48:48.422Z,45.40
2018-02-27T14:51:17.333Z,45.30
2018-02-27T14:53:45.947Z,45.10
2018-02-27T14:56:15.237Z,45.00
2018-02-27T14:58:44.092Z,45.00
2018-02-27T15:01:13.955Z,45.80
2018-02-27T15:03:42.712Z,45.80
2018-02-27T15:06:12.269Z,46.00
2018-02-27T15:08:41.827Z,46.00
2018-02-27T15:11:11.029Z,46.00
2018-02-27T15:13:39.764Z,45.40
2018-02-27T15:16:08.893Z,45.90
2018-02-27T15:18:38.156Z,46.00
2018-02-27T15:21:07.765Z,45.30
2018-02-27T15:23:36.772Z,45.20
2018-02-27T15:26:05.533Z,45.40
2018-02-27T15:28:34.577Z,46.00
2018-02-27T15:31:03.213Z,45.40
2018-02-27T15:33:32.253Z,45.70
2018-02-27T15:36:01.675Z,45.70
2018-02-27T15:38:30.509Z,45.60
2018-02-27T15:40:59.800Z,45.80
2018-02-27T15:43:29.270Z,46.00
2018-02-27T15:45:58.142Z,46.00
2018-02-27T15:48:27.961Z,46.40
2018-02-27T15:50:56.833Z,47.00
2018-02-27T15:53:25.421Z,46.30
2018-02-27T15:55:55.336Z,46.40
2018-02-27T15:58:30.220Z,46.60
2018-02-27T16:01:01.730Z,46.30
2018-02-27T16:03:30.548Z,46.40
2018-02-27T16:05:59.401Z,46.30
2018-02-27T16:08:28.194Z,46.10
2018-02-27T16:10:57.720Z,45.90
2018-02-27T16:13:26.589Z,45.90
2018-02-27T16:15:56.219Z,46.20
2018-02-27T16:18:24.886Z,46.00
2018-02-27T16:20:54.376Z,45.70
2018-02-27T16:23:25.485Z,45.60
2018-02-27T16:25:56.572Z,45.60
2018-02-27T16:28:25.367Z,45.90
2018-02-27T16:30:54.011Z,45.60
2018-02-27T16:33:22.727Z,46.10
2018-02-27T16:35:51.451Z,46.20
2018-02-27T16:38:21.794Z,46.50
2018-02-27T16:40:50.973Z,46.30
2018-02-27T16:43:19.776Z,46.40
2018-02-27T16:45:48.451Z,46.50
2018-02-27T16:48:17.329Z,47.00
2018-02-27T16:50:46.668Z,46.90
2018-02-27T16:53:15.929Z,46.10
2018-02-27T16:55:44.872Z,46.70
2018-02-27T16:58:14.445Z,46.90
2018-02-27T17:00:43.176Z,46.80
2018-02-27T17:03:13.484Z,47.00
2018-02-27T17:05:43.027Z,47.30
2018-02-27T17:08:11.620Z,47.30
2018-02-27T17:10:41.034Z,47.60
2018-02-27T17:13:10.533Z,47.70
2018-02-27T17:15:40.565Z,47.40
2018-02-27T17:18:09.957Z,48.00
2018-02-27T17:20:38.711Z,48.00
2018-02-27T17:23:07.735Z,47.90
2018-02-27T17:25:37.408Z,47.90
2018-02-27T17:28:05.862Z,48.10
2018-02-27T17:30:34.344Z,48.10
2018-02-27T17:33:03.786Z,48.40
2018-02-27T17:35:32.374Z,48.40
2018-02-27T17:38:00.969Z,48.50
2018-02-27T17:40:30.134Z,48.30
2018-02-27T17:42:58.742Z,48.40
2018-02-27T17:45:28.130Z,48.50
2018-02-27T17:47:56.750Z,48.40
2018-02-27T17:50:25.461Z,48.50
2018-02-27T17:52:55.039Z,48.70
2018-02-27T17:55:23.787Z,48.50
2018-02-27T17:57:52.599Z,48.70
2018-02-27T18:00:21.178Z,48.60
2018-02-27T18:02:49.819Z,49.10
2018-02-27T18:05:18.501Z,48.90
2018-02-27T18:07:48.637Z,49.20
2018-02-27T18:10:18.439Z,49.20
2018-02-27T18:12:48.993Z,48.80
2018-02-27T18:15:20.100Z,48.80
2018-02-27T18:17:49.447Z,49.10
2018-02-27T18:20:18.719Z,48.90
2018-02-27T18:22:48.219Z,49.40
2018-02-27T18:25:18.516Z,49.50
2018-02-27T18:27:49.750Z,49.50
2018-02-27T18:30:19.722Z,49.50
2018-02-27T18:32:50.951Z,49.50
2018-02-27T18:35:19.635Z,49.80
2018-02-27T18:37:48.204Z,49.90
2018-02-27T18:40:17.825Z,49.90
2018-02-27T18:42:46.688Z,49.90
2018-02-27T18:45:15.281Z,50.20
2018-02-27T18:47:44.683Z,50.30
2018-02-27T18:50:13.282Z,50.30
2018-02-27T18:52:41.863Z,50.10
2018-02-27T18:55:11.250Z,50.50
2018-02-27T18:57:40.144Z,50.50
2018-02-27T19:00:08.772Z,50.60
2018-02-27T19:02:37.478Z,50.50
2018-02-27T19:05:06.547Z,50.70
2018-02-27T19:07:35.142Z,50.80
2018-02-27T19:10:04.147Z,51.10
2018-02-27T19:12:32.926Z,51.70
2018-02-27T19:15:01.872Z,51.20
2018-02-27T19:17:30.541Z,51.10
2018-02-27T19:20:00.464Z,51.50
2018-02-27T19:22:29.387Z,51.50
2018-02-27T19:24:58.191Z,51.30
2018-02-27T19:27:26.937Z,51.40
2018-02-27T19:29:56.886Z,51.40
2018-02-27T19:32:25.849Z,51.40
2018-02-27T19:34:54.895Z,51.30
2018-02-27T19:37:24.390Z,51.80
2018-02-27T19:39:53.189Z,51.80
2018-02-27T19:42:21.826Z,52.00
2018-02-27T19:44:50.746Z,52.00
2018-02-27T19:47:19.441Z,52.00
2018-02-27T19:49:48.001Z,52.00
2018-02-27T19:52:16.546Z,52.00
2018-02-27T19:54:45.351Z,52.10
2018-02-27T19:57:13.968Z,51.90
2018-02-27T19:59:42.610Z,52.00
2018-02-27T20:02:11.902Z,52.10
2018-02-27T20:04:41.260Z,52.10
2018-02-27T20:07:10.116Z,52.20
2018-02-27T20:09:40.768Z,52.20
2018-02-27T20:12:09.919Z,52.10
2018-02-27T20:14:39.199Z,52.40
2018-02-27T20:17:08.088Z,52.40
2018-02-27T20:19:36.844Z,52.40
2018-02-27T20:22:05.797Z,52.40
2018-02-27T20:24:35.287Z,52.70
2018-02-27T20:27:03.850Z,52.60
2018-02-27T20:29:32.528Z,52.60
2018-02-27T20:32:01.025Z,52.50
2018-02-27T20:34:32.538Z,52.50
2018-02-27T20:37:01.106Z,52.70
2018-02-27T20:39:31.540Z,52.90
2018-02-27T20:42:00.513Z,52.80
2018-02-27T20:44:28.995Z,52.50
2018-02-27T20:46:57.693Z,52.40
2018-02-27T20:49:26.325Z,52.10
2018-02-27T20:51:55.059Z,52.10
2018-02-27T20:54:23.598Z,52.20
2018-02-27T20:56:52.421Z,52.20
2018-02-27T20:59:21.024Z,52.10
2018-02-27T21:01:49.857Z,52.40
2018-02-27T21:04:19.283Z,53.00
2018-02-27T21:06:48.641Z,53.20
2018-02-27T21:09:18.481Z,53.10
2018-02-27T21:11:48.131Z,53.20
2018-02-27T21:14:17.450Z,53.10
2018-02-27T21:16:46.958Z,53.20
2018-02-27T21:19:15.607Z,53.20
2018-02-27T21:21:44.583Z,53.40
2018-02-27T21:24:13.993Z,53.40
2018-02-27T21:26:42.699Z,53.40
2018-02-27T21:29:12.058Z,53.30
2018-02-27T21:31:41.617Z,53.40
2018-02-27T21:34:11.005Z,53.50
2018-02-27T21:36:40.494Z,53.60
2018-02-27T21:39:10.064Z,53.80
2018-02-27T21:41:39.756Z,53.70
2018-02-27T21:44:08.453Z,53.60
2018-02-27T21:46:37.401Z,53.60
2018-02-27T21:49:06.074Z,53.50
2018-02-27T21:51:35.095Z,53.60
2018-02-27T21:54:03.957Z,53.20
2018-02-27T21:56:32.911Z,53.30
2018-02-27T21:59:02.352Z,53.60
2018-02-27T22:01:31.313Z,53.40
2018-02-27T22:04:00.912Z,53.60
2018-02-27T22:06:30.508Z,53.50
2018-02-27T22:09:00.141Z,53.60
2018-02-27T22:11:28.938Z,53.60
2018-02-27T22:13:57.642Z,53.60
2018-02-27T22:16:27.194Z,54.00
2018-02-27T22:18:56.122Z,54.00
2018-02-27T22:21:25.612Z,54.00
2018-02-27T22:23:54.476Z,54.00
2018-02-27T22:26:23.408Z,54.20
2018-02-27T22:28:52.105Z,54.10
2018-02-27T22:31:21.482Z,54.10
2018-02-27T22:33:51.135Z,54.50
2018-02-27T22:36:21.225Z,54.50
2018-02-27T22:38:50.599Z,54.60
2018-02-27T22:41:19.721Z,54.50
2018-02-27T22:43:48.589Z,54.50
2018-02-27T22:46:19.324Z,55.10
2018-02-27T22:48:48.850Z,54.80
2018-02-27T22:51:18.229Z,54.80
2018-02-27T22:53:47.878Z,54.90
2018-02-27T22:56:17.550Z,54.80
2018-02-27T22:58:46.658Z,55.00
2018-02-27T23:01:15.599Z,55.10
2018-02-27T23:03:44.556Z,55.30
2018-02-27T23:06:13.449Z,55.40
2018-02-27T23:08:42.224Z,55.60
2018-02-27T23:11:10.867Z,55.70
2018-02-27T23:13:41.984Z,56.20
2018-02-27T23:16:11.421Z,56.10
2018-02-27T23:18:40.764Z,56.10
2018-02-27T23:21:10.093Z,56.10
2018-02-27T23:23:40.031Z,56.00
2018-02-27T23:26:24.103Z,56.10
2018-02-27T23:28:57.887Z,56.00
2018-02-27T23:31:31.743Z,56.20
2018-02-27T23:34:27.750Z,56.20
2018-02-27T23:36:57.396Z,56.20
2018-02-27T23:39:26.347Z,56.30
2018-02-27T23:41:55.315Z,56.20
2018-02-27T23:44:25.116Z,56.20
2018-02-27T23:46:54.102Z,56.20
2018-02-27T23:49:24.682Z,56.20
2018-02-27T23:51:54.278Z,56.20
2018-02-27T23:54:23.165Z,56.30
2018-02-27T23:56:52.242Z,56.40
2018-02-27T23:59:22.066Z,56.40
